Time;durP1;ratioP1;P1;durP2;ratioP2;P2;SDS_P1;SDS_P2;PMS_P1;PMS_P2;Temp;Humidity;BMP_temperature;BMP_pressure;BME280_temperature;BME280_humidity;BME280_pressure;Samples;Min_cycle;Max_cycle;Signal;HPM_P1;HPM_P2
2021/11/14 00:00:05;;;;;;;86.80;57.30;;;;;;;4.17;91.60;100856.66;210353;1319;139646;-77
2021/11/14 00:05:26;;;;;;;83.30;54.10;;;;;;;4.15;91.62;100853.87;210607;1321;138925;-80
2021/11/14 00:10:30;;;;;;;76.60;49.90;;;;;;;4.17;91.78;100856.85;211493;1323;139504;-79
2021/11/14 00:15:32;;;;;;;80.10;50.30;;;;;;;4.16;92.13;100861.79;210511;1320;138092;-77
2021/11/14 00:20:33;;;;;;;70.20;47.00;;;;;;;4.15;92.35;100859.23;210246;1322;138515;-80
2021/11/14 00:25:35;;;;;;;73.90;47.70;;;;;;;4.17;92.45;100853.52;210903;1319;139330;-75
2021/11/14 00:30:37;;;;;;;70.40;48.40;;;;;;;4.24;92.79;100857.66;210698;1319;139149;-77
2021/11/14 00:35:47;;;;;;;87.10;54.30;;;;;;;4.33;92.77;100861.36;210924;1321;137958;-76
2021/11/14 00:40:49;;;;;;;74.00;48.40;;;;;;;4.29;92.21;100863.10;210151;1322;140805;-76
2021/11/14 00:45:50;;;;;;;69.60;47.70;;;;;;;4.25;92.56;100864.73;210861;1319;138351;-75
2021/11/14 00:50:51;;;;;;;73.20;47.50;;;;;;;4.24;92.89;100871.43;210648;1319;138885;-76
2021/11/14 00:55:57;;;;;;;73.40;48.60;;;;;;;4.26;93.07;100870.77;209661;1319;139411;-76
2021/11/14 01:01:06;;;;;;;78.10;52.70;;;;;;;4.24;93.03;100871.75;209982;1320;139156;-75
2021/11/14 01:06:10;;;;;;;79.20;54.20;;;;;;;4.22;93.02;100865.11;211373;1309;138566;-76
2021/11/14 01:11:15;;;;;;;85.90;54.90;;;;;;;4.16;92.93;100869.44;211207;1317;138419;-76
2021/11/14 01:16:19;;;;;;;76.30;49.00;;;;;;;4.14;93.31;100867.17;210051;1319;139220;-74
2021/11/14 01:21:20;;;;;;;63.80;43.90;;;;;;;4.20;93.11;100871.70;209583;1322;138916;-75
2021/11/14 01:26:22;;;;;;;60.70;40.80;;;;;;;4.24;93.07;100870.92;210316;1320;138607;-75
2021/11/14 01:31:27;;;;;;;62.20;41.30;;;;;;;4.26;92.75;100868.52;210895;1319;138562;-74
2021/11/14 01:36:35;;;;;;;68.40;43.60;;;;;;;4.22;92.77;100870.67;210925;1319;138335;-77
2021/11/14 01:41:41;;;;;;;62.90;40.00;;;;;;;4.15;93.00;100878.77;210029;1322;139213;-75
2021/11/14 01:46:44;;;;;;;66.70;43.50;;;;;;;4.13;93.35;100882.56;210547;1319;139336;-75
2021/11/14 02:01:24;;;;;;;66.60;43.90;;;;;;;4.30;93.07;100882.85;204975;1352;635142;-76
2021/11/14 02:06:26;;;;;;;64.30;40.60;;;;;;;4.25;92.80;100884.77;208518;1329;138432;-75
2021/11/14 02:11:30;;;;;;;64.70;41.90;;;;;;;4.17;93.10;100893.14;207229;1321;1598719;-76
2021/11/14 02:16:42;;;;;;;65.30;42.60;;;;;;;4.23;93.05;100899.92;208041;1331;139624;-75
2021/11/14 02:21:44;;;;;;;66.30;44.20;;;;;;;4.28;93.20;100903.23;208508;1332;138110;-75
2021/11/14 02:26:45;;;;;;;62.30;41.10;;;;;;;4.32;93.10;100903.70;210265;1319;138037;-76
2021/11/14 02:31:47;;;;;;;69.50;42.60;;;;;;;4.27;93.00;100907.52;209436;1320;138661;-77
2021/11/14 02:36:50;;;;;;;58.50;40.80;;;;;;;4.22;93.38;100904.14;211406;1319;138601;-78
2021/11/14 02:41:56;;;;;;;58.00;39.00;;;;;;;4.34;93.26;100905.45;212282;1313;138870;-76
2021/11/14 02:46:58;;;;;;;57.30;37.90;;;;;;;4.45;93.02;100906.13;209311;1319;138708;-76
2021/11/14 02:51:59;;;;;;;61.50;41.20;;;;;;;4.48;92.78;100909.94;209642;1319;138492;-75
2021/11/14 02:57:00;;;;;;;62.30;39.90;;;;;;;4.42;92.79;100913.14;211304;1326;138602;-75
2021/11/14 03:02:02;;;;;;;60.10;38.00;;;;;;;4.35;92.76;100921.29;210781;1319;138176;-75
2021/11/14 03:07:06;;;;;;;55.80;36.70;;;;;;;4.38;92.81;100927.35;209583;1320;138819;-73
2021/11/14 03:12:09;;;;;;;52.80;35.80;;;;;;;4.31;93.05;100928.01;210182;1319;139156;-76
2021/11/14 03:17:12;;;;;;;56.60;37.80;;;;;;;4.28;92.80;100927.81;209772;1319;137810;-76
2021/11/14 03:22:13;;;;;;;58.60;37.80;;;;;;;4.22;92.97;100932.95;209263;1326;138538;-76
2021/11/14 03:27:17;;;;;;;54.90;36.80;;;;;;;4.27;93.14;100935.39;209557;1320;138324;-77
2021/11/14 03:32:25;;;;;;;55.90;36.00;;;;;;;4.35;92.84;100938.74;209814;1319;138794;-74
2021/11/14 03:37:26;;;;;;;59.80;38.90;;;;;;;4.38;92.95;100941.16;210266;1319;138803;-76
2021/11/14 03:42:27;;;;;;;76.40;44.20;;;;;;;4.32;92.83;100939.95;210120;1319;138032;-77
2021/11/14 03:47:28;;;;;;;73.30;44.60;;;;;;;4.35;93.08;100940.32;210340;1320;138748;-77
2021/11/14 03:52:29;;;;;;;57.40;38.00;;;;;;;4.39;92.97;100945.08;210144;1320;139047;-76
2021/11/14 03:57:29;;;;;;;53.20;34.00;;;;;;;4.39;92.68;100948.02;210554;1320;138835;-77
2021/11/14 04:02:30;;;;;;;60.00;38.30;;;;;;;4.46;92.33;100951.10;209937;1319;138316;-76
2021/11/14 04:07:33;;;;;;;60.60;37.80;;;;;;;4.48;92.15;100956.39;210349;1319;138207;-79
2021/11/14 04:12:39;;;;;;;65.50;38.70;;;;;;;4.45;92.27;100959.15;209135;1320;138232;-76
2021/11/14 04:17:44;;;;;;;61.60;36.20;;;;;;;4.45;92.79;100960.55;210156;1320;138794;-76
2021/11/14 04:22:53;;;;;;;51.70;35.00;;;;;;;4.47;92.68;100953.98;210280;1323;139237;-76
2021/11/14 04:27:56;;;;;;;58.40;36.20;;;;;;;4.54;92.31;100959.61;209771;1320;138997;-77
2021/11/14 04:32:58;;;;;;;56.00;37.00;;;;;;;4.54;92.45;100969.38;210417;1319;137822;-76
2021/11/14 04:37:59;;;;;;;60.10;36.60;;;;;;;4.51;92.48;100971.35;209250;1319;137888;-75
2021/11/14 04:43:00;;;;;;;57.20;36.40;;;;;;;4.49;92.33;100974.67;209990;1319;138534;-77
2021/11/14 04:48:06;;;;;;;51.00;33.50;;;;;;;4.49;92.27;100983.68;210195;1319;138934;-76
2021/11/14 04:53:11;;;;;;;52.20;34.90;;;;;;;4.51;92.51;100987.75;210192;1319;138540;-76
2021/11/14 04:58:17;;;;;;;58.40;37.00;;;;;;;4.53;92.50;100991.85;209856;1322;138322;-79
2021/11/14 05:03:19;;;;;;;55.90;36.00;;;;;;;4.51;92.37;100994.39;209560;1322;138104;-76
2021/11/14 05:08:19;;;;;;;58.70;36.10;;;;;;;4.49;92.42;101011.80;211431;1312;139110;-79
2021/11/14 05:13:21;;;;;;;50.30;33.30;;;;;;;4.51;92.65;101015.64;209732;1326;139875;-76
2021/11/14 05:18:22;;;;;;;56.00;35.80;;;;;;;4.51;92.35;101024.23;209381;1326;139370;-75
2021/11/14 05:23:22;;;;;;;59.30;38.50;;;;;;;4.49;92.44;101025.90;209240;1325;139455;-74
2021/11/14 05:28:23;;;;;;;51.90;33.10;;;;;;;4.45;92.34;101033.84;209716;1322;139636;-75
2021/11/14 05:33:24;;;;;;;52.90;33.50;;;;;;;4.40;92.35;101039.73;209882;1325;138964;-75
2021/11/14 05:38:35;;;;;;;48.80;34.30;;;;;;;4.40;92.58;101044.84;210284;1325;140293;-78
2021/11/14 05:43:39;;;;;;;51.40;33.40;;;;;;;4.41;92.50;101047.53;210174;1322;138812;-77
2021/11/14 05:48:40;;;;;;;50.50;33.30;;;;;;;4.40;92.28;101056.36;208737;1322;138623;-77
2021/11/14 05:53:43;;;;;;;54.80;34.00;;;;;;;4.40;92.42;101056.02;210143;1323;138547;-81
2021/11/14 05:58:50;;;;;;;48.90;32.20;;;;;;;4.38;92.45;101061.16;209768;1322;139220;-75
2021/11/14 06:09:03;;;;;;;46.90;31.70;;;;;;;4.42;92.15;101068.39;209865;1322;138971;-77
2021/11/14 06:14:09;;;;;;;45.40;32.40;;;;;;;4.40;92.33;101075.55;209226;1323;138685;-81
2021/11/14 06:19:10;;;;;;;49.30;33.10;;;;;;;4.23;92.62;101077.30;209662;1323;139650;-77
2021/11/14 06:24:11;;;;;;;43.70;31.70;;;;;;;4.18;93.08;101088.58;210039;1319;138760;-77
2021/11/14 06:29:12;;;;;;;47.70;31.90;;;;;;;4.17;93.24;101089.84;210514;1319;139349;-78
2021/11/14 06:34:13;;;;;;;42.10;29.90;;;;;;;4.24;93.12;101095.58;210348;1323;138608;-78
2021/11/14 06:39:14;;;;;;;44.40;30.50;;;;;;;4.26;93.06;101096.63;210358;1323;138016;-76
2021/11/14 06:44:15;;;;;;;46.20;30.10;;;;;;;4.17;93.15;101101.73;209795;1317;139035;-77
2021/11/14 06:49:16;;;;;;;50.20;31.30;;;;;;;4.18;93.31;101108.85;210477;1318;139388;-76
2021/11/14 06:54:17;;;;;;;43.90;29.50;;;;;;;4.23;93.23;101116.88;211075;1319;138764;-77
2021/11/14 06:59:18;;;;;;;39.50;28.10;;;;;;;4.31;92.86;101123.38;213590;1322;138698;-74
2021/11/14 07:04:19;;;;;;;42.70;28.20;;;;;;;4.33;92.69;101132.67;213237;1323;138030;-76
2021/11/14 07:09:20;;;;;;;43.10;29.10;;;;;;;4.23;92.83;101142.73;211089;1320;139089;-78
2021/11/14 07:14:22;;;;;;;44.80;28.60;;;;;;;4.18;93.04;101150.14;210235;1320;139980;-78
2021/11/14 07:19:23;;;;;;;48.90;31.70;;;;;;;4.26;93.34;101151.08;209856;1325;139153;-64
2021/11/14 07:24:25;;;;;;;46.30;31.70;;;;;;;4.36;93.06;101155.99;209683;1320;140210;-79
2021/11/14 07:29:27;;;;;;;51.80;34.90;;;;;;;4.44;92.49;101164.46;210536;1319;140338;-78
2021/11/14 07:34:28;;;;;;;49.60;34.70;;;;;;;4.38;91.97;101164.80;209766;1316;139172;-78
2021/11/14 07:39:30;;;;;;;51.30;35.70;;;;;;;4.37;91.45;101168.85;209891;1322;139716;-70
2021/11/14 07:44:34;;;;;;;52.30;34.30;;;;;;;4.37;91.03;101173.77;210135;1322;139271;-79
2021/11/14 07:49:40;;;;;;;51.40;34.80;;;;;;;4.29;90.60;101178.48;211219;1318;139223;-76
2021/11/14 07:54:41;;;;;;;55.90;36.50;;;;;;;4.17;90.22;101183.71;211042;1325;138559;-77
2021/11/14 07:59:42;;;;;;;58.10;34.40;;;;;;;4.20;90.58;101188.27;209923;1319;138923;-77
2021/11/14 08:04:44;;;;;;;52.30;35.00;;;;;;;4.26;90.34;101195.23;210091;1319;139377;-76
2021/11/14 08:09:45;;;;;;;60.10;38.40;;;;;;;4.23;90.11;101206.08;209360;1322;140106;-81
2021/11/14 08:14:46;;;;;;;55.60;36.30;;;;;;;4.20;89.79;101208.63;209379;1320;138494;-79
2021/11/14 08:19:47;;;;;;;61.60;38.40;;;;;;;4.26;89.90;101211.24;209682;1321;138238;-76
2021/11/14 08:24:47;;;;;;;56.40;36.60;;;;;;;4.22;90.24;101214.83;209376;1325;138382;-77
2021/11/14 08:29:50;;;;;;;55.10;36.70;;;;;;;4.28;90.08;101217.75;209352;1325;139085;-76
2021/11/14 08:34:51;;;;;;;53.50;37.10;;;;;;;4.37;89.85;101225.05;209563;1320;139916;-79
2021/11/14 08:39:56;;;;;;;59.60;38.80;;;;;;;4.42;89.49;101234.16;209899;1325;138611;-78
2021/11/14 08:44:57;;;;;;;53.80;36.90;;;;;;;4.42;89.74;101233.96;208498;1325;138697;-76
2021/11/14 08:49:58;;;;;;;55.20;36.10;;;;;;;4.43;89.67;101242.46;209526;1324;139419;-77
2021/11/14 08:55:02;;;;;;;51.70;35.80;;;;;;;4.49;89.74;101251.20;210312;1324;138590;-76
2021/11/14 09:00:05;;;;;;;54.10;38.50;;;;;;;4.56;89.65;101255.32;212769;1323;137677;-65
2021/11/14 09:05:08;;;;;;;62.00;39.80;;;;;;;4.56;89.61;101258.59;213212;1320;137679;-79
2021/11/14 09:10:09;;;;;;;61.50;39.50;;;;;;;4.55;89.91;101266.34;212987;1323;139045;-77
2021/11/14 09:15:11;;;;;;;53.30;36.40;;;;;;;4.47;89.74;101266.66;209685;1326;142663;-77
2021/11/14 09:20:13;;;;;;;49.20;33.50;;;;;;;4.51;89.79;101271.13;208206;1325;138820;-78
2021/11/14 09:25:14;;;;;;;50.80;35.50;;;;;;;4.56;89.76;101272.58;208886;1321;139239;-78
2021/11/14 09:30:18;;;;;;;54.20;35.90;;;;;;;4.61;89.74;101271.72;208955;1320;138174;-78
2021/11/14 09:35:19;;;;;;;55.60;35.80;;;;;;;4.63;89.92;101275.80;209209;1316;138508;-75
2021/11/14 09:40:24;;;;;;;52.80;34.80;;;;;;;4.65;89.82;101276.76;208580;1320;138855;-79
2021/11/14 09:45:27;;;;;;;44.40;31.80;;;;;;;4.69;89.44;101277.58;209472;1320;138519;-78
2021/11/14 09:50:29;;;;;;;52.10;34.40;;;;;;;4.75;88.93;101283.66;210228;1321;138092;-81
2021/11/14 09:55:34;;;;;;;54.70;36.20;;;;;;;4.73;89.11;101288.52;209915;1320;138268;-78
2021/11/14 10:00:39;;;;;;;52.10;36.10;;;;;;;4.65;89.23;101289.68;210403;1319;138000;-78
2021/11/14 10:05:40;;;;;;;58.00;37.20;;;;;;;4.61;89.04;101299.71;209623;1317;139060;-80
2021/11/14 10:10:53;;;;;;;54.30;37.70;;;;;;;4.67;88.98;101294.26;209782;1320;139574;-78
2021/11/14 10:16:21;;;;;;;71.70;44.00;;;;;;;4.78;88.32;101297.46;209192;1318;138534;-77
2021/11/14 10:21:30;;;;;;;60.60;40.50;;;;;;;4.82;87.91;101301.90;208734;1320;138697;-76
2021/11/14 10:26:38;;;;;;;58.90;39.50;;;;;;;4.73;87.95;101300.73;209001;1322;138838;-76
2021/11/14 10:31:41;;;;;;;55.90;38.20;;;;;;;4.67;87.44;101301.26;209398;1320;139351;-76
2021/11/14 10:36:42;;;;;;;52.20;36.80;;;;;;;4.68;87.51;101304.48;209387;1319;138958;-76
2021/11/14 10:41:45;;;;;;;59.60;39.70;;;;;;;4.74;87.61;101302.58;208694;1320;138759;-79
2021/11/14 10:46:46;;;;;;;54.50;40.50;;;;;;;4.77;87.82;101305.40;208894;1325;138482;-79
2021/11/14 10:51:56;;;;;;;61.70;44.10;;;;;;;4.72;87.55;101306.58;208969;1321;138316;-79
2021/11/14 10:57:01;;;;;;;52.50;37.50;;;;;;;4.67;87.75;101310.30;209846;1320;139609;-78
2021/11/14 11:02:03;;;;;;;50.60;37.00;;;;;;;4.71;86.94;101308.70;209208;1316;139502;-80
2021/11/14 11:07:04;;;;;;;56.30;39.30;;;;;;;4.79;86.63;101315.89;209332;1324;140082;-79
2021/11/14 11:12:26;;;;;;;54.90;38.30;;;;;;;4.80;86.36;101317.39;210483;1319;139709;-80
2021/11/14 11:17:29;;;;;;;53.70;36.30;;;;;;;4.77;85.97;101312.73;209977;1326;138175;-71
2021/11/14 11:22:29;;;;;;;50.20;36.50;;;;;;;4.75;85.99;101312.31;209252;1320;139374;-76
2021/11/14 11:27:30;;;;;;;50.90;38.60;;;;;;;4.78;85.99;101316.98;208518;1323;139843;-77
2021/11/14 11:32:31;;;;;;;53.10;37.90;;;;;;;4.84;85.67;101324.67;210384;1319;139277;-78
2021/11/14 11:37:33;;;;;;;54.60;39.60;;;;;;;4.81;85.35;101328.89;210056;1321;138571;-79
2021/11/14 11:42:34;;;;;;;63.00;42.40;;;;;;;4.74;85.68;101331.55;209963;1320;138280;-76
2021/11/14 11:47:40;;;;;;;58.50;39.80;;;;;;;4.64;85.81;101336.48;210169;1325;138913;-76
2021/11/14 11:52:45;;;;;;;52.70;37.70;;;;;;;4.70;85.84;101339.98;209522;1320;139372;-78
2021/11/14 11:57:49;;;;;;;57.40;39.80;;;;;;;4.81;85.51;101344.77;209551;1319;138968;-77
2021/11/14 12:02:52;;;;;;;59.60;39.40;;;;;;;4.87;85.01;101347.20;209652;1326;138490;-78
2021/11/14 12:07:54;;;;;;;49.90;35.50;;;;;;;4.84;84.39;101355.06;209859;1322;139461;-78
2021/11/14 12:13:03;;;;;;;50.20;34.00;;;;;;;4.80;84.41;101359.86;209922;1319;140055;-80
2021/11/14 12:18:09;;;;;;;47.20;33.30;;;;;;;4.84;84.08;101371.15;210740;1320;139483;-76
2021/11/14 12:23:28;;;;;;;55.20;36.50;;;;;;;4.88;84.23;101372.42;209988;1320;138399;-78
2021/11/14 12:28:34;;;;;;;55.40;37.10;;;;;;;4.88;84.71;101376.45;210056;1320;139216;-72
2021/11/14 12:33:44;;;;;;;57.80;37.60;;;;;;;4.83;84.73;101379.56;209711;1319;138561;-78
2021/11/14 12:39:04;;;;;;;53.90;36.60;;;;;;;4.82;85.24;101383.80;209576;1319;139245;-79
2021/11/14 12:44:06;;;;;;;51.40;36.10;;;;;;;4.81;85.16;101393.30;209602;1320;139078;-79
2021/11/14 12:49:12;;;;;;;61.60;41.60;;;;;;;4.87;85.59;101398.67;210332;1322;138468;-79
2021/11/14 12:54:17;;;;;;;60.60;42.00;;;;;;;4.86;85.69;101405.56;210270;1323;138181;-79
2021/11/14 12:59:27;;;;;;;58.70;40.50;;;;;;;4.85;86.13;101406.36;209758;1319;139154;-76
2021/11/14 13:04:36;;;;;;;56.20;38.30;;;;;;;4.83;86.10;101410.30;209669;1322;139957;-79
2021/11/14 13:09:47;;;;;;;53.30;38.90;;;;;;;4.86;85.99;101420.05;209991;1322;139071;-76
2021/11/14 13:14:56;;;;;;;59.80;39.80;;;;;;;4.91;85.92;101425.86;209841;1319;138871;-76
2021/11/14 13:20:00;;;;;;;61.80;42.00;;;;;;;4.84;86.06;101422.64;212659;1316;138570;-76
2021/11/14 13:25:04;;;;;;;63.70;42.10;;;;;;;4.81;86.37;101424.73;211065;1312;138472;-77
2021/11/14 13:30:06;;;;;;;67.50;44.30;;;;;;;4.72;87.05;101422.98;210006;1328;138897;-81
2021/11/14 13:35:07;;;;;;;60.50;40.00;;;;;;;4.66;87.81;101424.02;210149;1328;139286;-79
2021/11/14 13:40:19;;;;;;;57.50;38.50;;;;;;;4.68;88.41;101432.11;211270;1322;139977;-75
2021/11/14 13:45:29;;;;;;;66.00;44.00;;;;;;;4.76;88.72;101432.89;210406;1310;139226;-79
2021/11/14 13:50:31;;;;;;;64.20;44.80;;;;;;;4.73;89.19;101435.33;209280;1321;138734;-77
2021/11/14 13:55:51;;;;;;;70.30;44.90;;;;;;;4.69;89.17;101444.30;210054;1320;138556;-78
2021/11/14 14:00:56;;;;;;;66.50;42.50;;;;;;;4.67;89.84;101451.03;209117;1319;139302;-77
2021/11/14 14:05:57;;;;;;;60.00;43.00;;;;;;;4.64;89.70;101455.89;208914;1322;138876;-76
2021/11/14 14:11:05;;;;;;;67.70;46.40;;;;;;;4.62;89.63;101462.32;209468;1319;138881;-82
2021/11/14 14:16:07;;;;;;;66.60;45.40;;;;;;;4.58;89.97;101470.55;209845;1319;139133;-74
2021/11/14 14:21:08;;;;;;;66.10;44.40;;;;;;;4.52;90.24;101478.42;209945;1320;139106;-76
2021/11/14 14:26:20;;;;;;;64.80;43.50;;;;;;;4.56;90.58;101479.93;210378;1320;138961;-76
2021/11/14 14:31:25;;;;;;;71.00;46.80;;;;;;;4.58;90.66;101486.43;210715;1316;139219;-76
2021/11/14 14:36:30;;;;;;;76.80;47.90;;;;;;;4.60;90.78;101489.11;210907;1319;139631;-76
2021/11/14 14:41:31;;;;;;;68.70;45.90;;;;;;;4.64;90.88;101494.85;210147;1319;139961;-78
2021/11/14 14:46:45;;;;;;;64.00;41.30;;;;;;;4.71;90.93;101500.58;209842;1309;140077;-74
2021/11/14 14:52:01;;;;;;;73.40;46.60;;;;;;;4.79;91.07;101504.09;209769;1321;138678;-78
2021/11/14 14:57:05;;;;;;;67.80;45.90;;;;;;;4.82;90.71;101506.85;209730;1321;138744;-76
2021/11/14 15:02:07;;;;;;;71.80;46.30;;;;;;;4.79;90.75;101510.23;209833;1322;138534;-79
2021/11/14 15:07:16;;;;;;;74.40;46.40;;;;;;;4.78;91.04;101512.74;210057;1317;138776;-79
2021/11/14 15:12:29;;;;;;;69.10;44.00;;;;;;;4.83;91.10;101522.41;209986;1322;139100;-78
2021/11/14 15:17:33;;;;;;;71.00;45.80;;;;;;;4.89;90.72;101531.98;209458;1319;139379;-79
2021/11/14 15:22:41;;;;;;;68.80;44.40;;;;;;;4.87;90.71;101537.01;209062;1322;138863;-76
2021/11/14 15:27:48;;;;;;;61.90;40.80;;;;;;;4.80;90.86;101541.27;209375;1322;139072;-77
2021/11/14 15:32:54;;;;;;;60.50;40.30;;;;;;;4.77;90.94;101549.95;209584;1316;139261;-77
2021/11/14 15:37:56;;;;;;;63.90;38.20;;;;;;;4.77;90.93;101556.77;209434;1319;140208;-79
2021/11/14 15:42:57;;;;;;;61.80;40.40;;;;;;;4.81;90.65;101564.58;210531;1318;140141;-80
2021/11/14 15:48:01;;;;;;;60.90;40.30;;;;;;;4.81;90.33;101568.42;209553;1319;139437;-77
2021/11/14 15:53:03;;;;;;;64.90;41.20;;;;;;;4.76;90.57;101578.13;209621;1323;138325;-76
2021/11/14 15:58:06;;;;;;;58.90;37.40;;;;;;;4.76;90.66;101583.89;209301;1319;139003;-77
2021/11/14 16:03:13;;;;;;;59.70;38.90;;;;;;;4.79;90.73;101590.36;210258;1320;139190;-77
2021/11/14 16:08:14;;;;;;;65.30;42.50;;;;;;;4.86;90.88;101589.62;209289;1320;138869;-79
2021/11/14 16:13:15;;;;;;;62.90;43.10;;;;;;;4.85;90.51;101592.13;209582;1317;138472;-76
2021/11/14 16:18:18;;;;;;;63.20;40.00;;;;;;;4.82;90.93;101599.45;209448;1320;138591;-77
2021/11/14 16:23:26;;;;;;;68.60;44.40;;;;;;;4.81;90.93;101603.17;210353;1319;139580;-80
2021/11/14 16:28:33;;;;;;;74.20;49.20;;;;;;;4.83;91.12;101605.17;209632;1319;139229;-69
2021/11/14 16:33:35;;;;;;;80.50;51.60;;;;;;;4.87;90.78;101606.16;209968;1319;140845;-74
2021/11/14 16:38:38;;;;;;;76.90;48.40;;;;;;;4.82;90.85;101610.80;213073;1319;139080;-75
2021/11/14 16:43:39;;;;;;;72.40;44.80;;;;;;;4.78;90.58;101617.84;212078;1319;138472;-78
2021/11/14 16:48:41;;;;;;;69.70;43.20;;;;;;;4.78;90.80;101615.55;210755;1319;139997;-76
2021/11/14 16:53:46;;;;;;;71.20;44.80;;;;;;;4.82;90.67;101620.40;210746;1319;138806;-78
2021/11/14 16:58:51;;;;;;;76.00;47.50;;;;;;;4.86;90.62;101627.67;209113;1319;138808;-76
2021/11/14 17:03:53;;;;;;;80.30;48.50;;;;;;;4.80;90.39;101635.00;209661;1318;138537;-75
2021/11/14 17:08:54;;;;;;;78.50;46.80;;;;;;;4.73;90.68;101633.30;209584;1322;138804;-75
2021/11/14 17:13:58;;;;;;;71.20;45.50;;;;;;;4.71;90.56;101642.51;209696;1322;139579;-76
2021/11/14 17:19:00;;;;;;;78.20;48.50;;;;;;;4.72;90.24;101652.40;209245;1319;139009;-72
2021/11/14 17:24:09;;;;;;;75.30;47.90;;;;;;;4.71;90.25;101661.35;209279;1319;138205;-78
2021/11/14 17:29:10;;;;;;;75.40;46.40;;;;;;;4.66;90.11;101668.42;209104;1322;138789;-77
2021/11/14 17:34:12;;;;;;;66.60;41.10;;;;;;;4.61;90.12;101673.73;209869;1319;138906;-76
2021/11/14 17:39:13;;;;;;;68.00;41.30;;;;;;;4.60;89.77;101677.29;209698;1323;138006;-78
2021/11/14 17:44:16;;;;;;;66.00;42.10;;;;;;;4.63;89.33;101681.82;209553;1316;138607;-77
2021/11/14 17:49:19;;;;;;;70.00;44.00;;;;;;;4.66;89.18;101689.88;209615;1319;137438;-77
2021/11/14 17:54:20;;;;;;;63.40;41.20;;;;;;;4.66;88.97;101692.83;210852;1309;139637;-73
2021/11/14 17:59:24;;;;;;;65.90;41.90;;;;;;;4.55;88.93;101691.91;209958;1319;138215;-77
2021/11/14 18:04:31;;;;;;;67.10;39.40;;;;;;;4.48;89.52;101697.34;210076;1317;140328;-78
2021/11/14 18:09:33;;;;;;;64.50;40.50;;;;;;;4.56;89.69;101698.60;210586;1319;141280;-79
2021/11/14 18:14:43;;;;;;;65.90;41.30;;;;;;;4.60;89.24;101708.35;209878;1320;271317;-77
2021/11/14 18:19:49;;;;;;;65.00;41.20;;;;;;;4.57;89.14;101710.42;209751;1317;138705;-78
2021/11/14 18:24:59;;;;;;;74.30;46.20;;;;;;;4.53;89.16;101715.02;210743;1320;139276;-80
2021/11/14 18:30:00;;;;;;;65.60;42.00;;;;;;;4.51;89.41;101714.77;210919;1319;139725;-76
2021/11/14 18:35:01;;;;;;;66.70;40.40;;;;;;;4.51;89.55;101716.85;209128;1319;139153;-78
2021/11/14 18:40:08;;;;;;;62.60;39.40;;;;;;;4.54;89.42;101721.80;209757;1319;140005;-83
2021/11/14 18:45:10;;;;;;;66.80;42.80;;;;;;;4.56;89.60;101728.84;209593;1320;138458;-80
2021/11/14 18:50:12;;;;;;;62.20;42.70;;;;;;;4.56;89.35;101729.16;209512;1320;138774;-77
2021/11/14 18:55:16;;;;;;;67.50;41.60;;;;;;;4.56;89.53;101730.92;210340;1319;139568;-76
2021/11/14 19:00:19;;;;;;;66.10;39.30;;;;;;;4.52;89.58;101734.27;210070;1318;140224;-77
2021/11/14 19:05:21;;;;;;;63.80;39.60;;;;;;;4.55;89.35;101737.08;210288;1319;139857;-76
2021/11/14 19:10:22;;;;;;;60.50;40.60;;;;;;;4.59;89.03;101745.58;210071;1320;139370;-79
2021/11/14 19:15:26;;;;;;;59.50;39.70;;;;;;;4.57;88.62;101754.27;210376;1323;139124;-79
2021/11/14 19:20:30;;;;;;;60.70;38.30;;;;;;;4.52;88.20;101765.36;209768;1316;139428;-78
2021/11/14 19:25:37;;;;;;;51.90;34.10;;;;;;;4.49;87.99;101776.86;210833;1320;139361;-80
2021/11/14 19:30:43;;;;;;;50.20;32.80;;;;;;;4.53;87.48;101779.24;209789;1319;139934;-79
2021/11/14 19:35:44;;;;;;;51.50;34.20;;;;;;;4.57;86.71;101786.20;209839;1319;141528;-76
2021/11/14 19:40:46;;;;;;;53.10;33.50;;;;;;;4.54;86.13;101789.34;210219;1320;138824;-77
2021/11/14 19:45:47;;;;;;;50.10;31.50;;;;;;;4.49;86.13;101792.20;210932;1316;139082;-76
2021/11/14 19:50:49;;;;;;;49.30;31.80;;;;;;;4.50;86.27;101794.60;211226;1316;138681;-77
2021/11/14 19:55:50;;;;;;;44.70;31.00;;;;;;;4.56;86.22;101806.17;209618;1319;138981;-77
2021/11/14 20:00:52;;;;;;;47.50;31.90;;;;;;;4.63;85.86;101810.33;209429;1319;138549;-76
2021/11/14 20:05:57;;;;;;;54.10;34.90;;;;;;;4.59;86.03;101821.16;209200;1321;138348;-78
2021/11/14 20:10:58;;;;;;;52.80;32.70;;;;;;;4.54;86.03;101827.00;210180;1319;138231;-75
2021/11/14 20:16:04;;;;;;;51.20;32.30;;;;;;;4.52;86.32;101841.96;210220;1319;139281;-78
2021/11/14 20:21:05;;;;;;;47.70;33.10;;;;;;;4.58;86.34;101851.45;210360;1319;141261;-75
2021/11/14 20:26:06;;;;;;;58.60;36.40;;;;;;;4.63;86.19;101851.54;210240;1320;138121;-76
2021/11/14 20:31:08;;;;;;;55.60;36.10;;;;;;;4.61;86.36;101854.95;210202;1319;138686;-80
2021/11/14 20:36:09;;;;;;;63.50;37.20;;;;;;;4.55;86.63;101859.80;209952;1319;138373;-77
2021/11/14 20:41:10;;;;;;;62.10;37.20;;;;;;;4.46;87.50;101863.20;210272;1320;138778;-77
2021/11/14 20:46:11;;;;;;;53.40;35.50;;;;;;;4.50;87.73;101862.33;210051;1319;139520;-77
2021/11/14 20:51:12;;;;;;;59.00;38.70;;;;;;;4.53;88.23;101870.73;210895;1319;139610;-77
2021/11/14 20:56:13;;;;;;;61.90;39.80;;;;;;;4.51;88.60;101872.73;211591;1316;138841;-76
2021/11/14 21:17:17;;;;;;;62.00;39.30;;;;;;;4.52;89.24;101868.84;205986;1355;636179;-75
2021/11/14 21:22:19;;;;;;;68.60;42.20;;;;;;;4.45;89.40;101865.34;208210;1330;138022;-76
2021/11/14 21:27:20;;;;;;;70.80;42.30;;;;;;;4.42;89.58;101862.71;208864;1328;138442;-75
2021/11/14 21:32:25;;;;;;;67.80;41.40;;;;;;;4.40;89.77;101869.10;208861;1329;137734;-77
2021/11/14 21:43:07;;;;;;;62.70;40.10;;;;;;;4.47;89.70;101869.83;210825;1309;138461;-75
2021/11/14 21:48:10;;;;;;;64.30;39.30;;;;;;;4.46;89.38;101872.46;210763;1317;138378;-76
2021/11/14 21:53:14;;;;;;;66.20;38.90;;;;;;;4.42;89.35;101874.57;211075;1316;137614;-77
2021/11/14 21:58:15;;;;;;;61.50;37.00;;;;;;;4.43;89.80;101880.67;212472;1306;137671;-75
2021/11/14 22:03:18;;;;;;;61.00;38.00;;;;;;;4.45;89.65;101886.45;210890;1317;138746;-76
2021/11/14 22:08:20;;;;;;;63.00;39.90;;;;;;;4.48;89.72;101891.71;211735;1318;139228;-76
2021/11/14 22:13:21;;;;;;;61.10;39.20;;;;;;;4.46;89.51;101897.27;211349;1318;138692;-77
2021/11/14 22:18:24;;;;;;;62.10;39.70;;;;;;;4.41;89.77;101903.42;211952;1316;138221;-78
2021/11/14 22:23:30;;;;;;;65.00;38.80;;;;;;;4.39;90.15;101902.11;211372;1316;139075;-75
2021/11/14 22:28:37;;;;;;;58.30;36.60;;;;;;;4.42;90.49;101904.61;211632;1308;138950;-77
2021/11/14 22:33:39;;;;;;;56.90;36.80;;;;;;;4.48;90.67;101907.82;211156;1323;138264;-76
2021/11/14 22:38:41;;;;;;;62.40;38.20;;;;;;;4.49;90.65;101915.07;211646;1319;137950;-74
2021/11/14 22:43:46;;;;;;;56.70;37.30;;;;;;;4.46;90.85;101915.40;211124;1319;137976;-68
2021/11/14 22:48:59;;;;;;;50.20;32.30;;;;;;;4.44;91.16;101913.39;211404;1318;138179;-77
2021/11/14 22:54:01;;;;;;;51.00;32.90;;;;;;;4.46;91.41;101914.54;211045;1319;139326;-75
2021/11/14 22:59:09;;;;;;;50.80;33.00;;;;;;;4.52;91.56;101914.59;211162;1319;138810;-79
2021/11/14 23:04:18;;;;;;;50.90;31.90;;;;;;;4.55;91.54;101919.66;212517;1308;138353;-74
2021/11/14 23:14:51;;;;;;;39.60;25.60;;;;;;;4.49;92.21;101928.17;210365;1320;139624;-75
2021/11/14 23:19:55;;;;;;;40.50;26.10;;;;;;;4.52;92.35;101924.52;211348;1309;139725;-75
2021/11/14 23:24:57;;;;;;;37.00;25.70;;;;;;;4.57;92.02;101927.09;210836;1322;138798;-76